Time;durP1;ratioP1;P1;durP2;ratioP2;P2;SDS_P1;SDS_P2;PMS_P1;PMS_P2;Temp;Humidity;BMP_temperature;BMP_pressure;BME280_temperature;BME280_humidity;BME280_pressure;Samples;Min_cycle;Max_cycle;Signal;HPM_P1;HPM_P2
2023/05/03 00:01:37;;;;;;;;;;;;;;;11.78;91.45;101650.72;5011951;28;19924;-91
2023/05/03 00:04:05;;;;;;;;;;;;;;;11.76;91.65;101643.75;5015674;28;19925;-92
2023/05/03 00:06:30;;;;;;;;;;;;;;;11.78;91.25;101641.78;5020378;28;19927;-90
2023/05/03 00:08:57;;;;;;;;;;;;;;;11.81;90.80;101647.72;4994969;28;19925;-91
2023/05/03 00:11:23;;;;;;;;;;;;;;;11.64;91.71;101656.53;4976737;28;19940;-91
2023/05/03 00:13:48;;;;;;;;;;;;;;;11.70;91.39;101655.94;4993533;28;19929;-92
2023/05/03 00:16:16;;;;;;;;;;;;;;;11.59;91.60;101650.75;4960896;28;19918;-93
2023/05/03 00:18:46;;;;;;;;;;;;;;;11.43;92.63;101663.94;4976024;28;19928;-92
2023/05/03 00:21:11;;;;;;;;;;;;;;;11.54;91.89;101650.31;4999865;28;20029;-92
2023/05/03 00:23:42;;;;;;;;;;;;;;;11.54;91.66;101651.19;4993373;28;20278;-90
2023/05/03 00:26:11;;;;;;;;;;;;;;;11.47;91.59;101650.03;4984320;28;19987;-92
2023/05/03 00:28:40;;;;;;;;;;;;;;;11.58;90.78;101657.94;4998772;28;20380;-91
2023/05/03 00:31:10;;;;;;;;;;;;;;;11.66;90.13;101649.19;4991327;28;20286;-92
2023/05/03 00:33:38;;;;;;;;;;;;;;;11.58;90.46;101652.56;4978805;28;19913;-92
2023/05/03 00:36:07;;;;;;;;;;;;;;;11.64;89.93;101645.78;5015078;28;19922;-90
2023/05/03 00:38:33;;;;;;;;;;;;;;;11.68;89.55;101635.53;4995223;28;19962;-90
2023/05/03 00:40:59;;;;;;;;;;;;;;;11.66;89.17;101633.00;4975187;28;19925;-92
2023/05/03 00:43:25;;;;;;;;;;;;;;;11.60;89.53;101642.50;4991450;28;19921;-93
2023/05/03 00:45:51;;;;;;;;;;;;;;;11.63;89.50;101641.34;5002492;28;20254;-94
2023/05/03 00:48:17;;;;;;;;;;;;;;;11.59;89.54;101643.50;4964387;28;20036;-92
2023/05/03 00:50:45;;;;;;;;;;;;;;;11.56;89.92;101649.16;4979984;28;20423;-89
2023/05/03 00:53:12;;;;;;;;;;;;;;;11.61;89.86;101635.25;4980763;28;19929;-90
2023/05/03 00:55:54;;;;;;;;;;;;;;;11.61;90.21;101635.25;4989822;28;19925;-90
2023/05/03 00:58:20;;;;;;;;;;;;;;;11.49;90.76;101637.25;4979113;28;19933;-91
2023/05/03 01:00:47;;;;;;;;;;;;;;;11.43;91.16;101629.78;4984536;28;19922;-91
2023/05/03 01:03:13;;;;;;;;;;;;;;;11.46;91.45;101637.56;4993734;28;19925;-92
2023/05/03 01:05:51;;;;;;;;;;;;;;;11.51;91.39;101627.19;4974149;28;20329;-92
2023/05/03 01:08:33;;;;;;;;;;;;;;;11.46;91.56;101625.94;4989645;28;19918;-93
2023/05/03 01:11:19;;;;;;;;;;;;;;;11.46;92.64;101626.78;4987300;28;19926;-92
2023/05/03 01:14:02;;;;;;;;;;;;;;;11.35;93.05;101617.00;4963973;28;20262;-92
2023/05/03 01:16:34;;;;;;;;;;;;;;;11.36;93.05;101625.97;5017735;28;19929;-90
2023/05/03 01:19:02;;;;;;;;;;;;;;;11.38;92.69;101618.59;5000174;28;19921;-91
2023/05/03 01:21:27;;;;;;;;;;;;;;;11.39;92.81;101626.50;5011940;28;20016;-91
2023/05/03 01:24:03;;;;;;;;;;;;;;;11.37;92.81;101616.88;5012648;28;19935;-92
2023/05/03 01:26:28;;;;;;;;;;;;;;;11.38;93.31;101616.75;4998613;28;19933;-91
2023/05/03 01:28:59;;;;;;;;;;;;;;;11.45;92.63;101622.41;5012902;28;19925;-91
2023/05/03 01:31:43;;;;;;;;;;;;;;;11.40;92.83;101628.22;5005009;28;20077;-91
2023/05/03 01:34:20;;;;;;;;;;;;;;;11.39;92.73;101625.66;5011428;28;19989;-91
2023/05/03 01:36:46;;;;;;;;;;;;;;;11.29;93.51;101624.81;5024747;28;19913;-90
2023/05/03 01:39:13;;;;;;;;;;;;;;;11.32;93.29;101621.84;5009019;28;19913;-90
2023/05/03 01:41:40;;;;;;;;;;;;;;;11.33;92.69;101628.91;5002710;28;19982;-92
2023/05/03 01:44:06;;;;;;;;;;;;;;;11.37;92.51;101630.34;5001592;28;19922;-90
2023/05/03 01:46:32;;;;;;;;;;;;;;;11.40;92.47;101633.59;5019967;28;19944;-92
2023/05/03 01:48:58;;;;;;;;;;;;;;;11.35;92.34;101630.47;4999319;28;19913;-90
2023/05/03 01:51:24;;;;;;;;;;;;;;;11.35;92.61;101626.94;4995627;28;19976;-90
2023/05/03 01:53:51;;;;;;;;;;;;;;;11.32;92.55;101630.75;5032258;28;20347;-90
2023/05/03 01:56:21;;;;;;;;;;;;;;;11.35;92.63;101624.25;5014190;28;20343;-91
2023/05/03 01:58:47;;;;;;;;;;;;;;;11.33;92.78;101624.41;5009150;28;19938;-91
2023/05/03 02:01:13;;;;;;;;;;;;;;;11.33;92.65;101620.84;4988461;28;19929;-91
2023/05/03 02:03:39;;;;;;;;;;;;;;;11.32;93.39;101621.84;5020594;28;19917;-91
2023/05/03 02:06:05;;;;;;;;;;;;;;;11.27;93.40;101613.34;5003752;28;19937;-90
2023/05/03 02:08:30;;;;;;;;;;;;;;;11.24;93.90;101614.47;5011509;28;19972;-90
2023/05/03 02:10:57;;;;;;;;;;;;;;;11.26;93.61;101619.72;5019356;28;19914;-89
2023/05/03 02:13:29;;;;;;;;;;;;;;;11.22;93.90;101626.38;5012063;28;19914;-89
2023/05/03 02:15:55;;;;;;;;;;;;;;;11.23;93.49;101628.06;5025959;28;19985;-89
2023/05/03 02:18:21;;;;;;;;;;;;;;;11.29;93.16;101627.53;5008978;28;19933;-89
2023/05/03 02:20:47;;;;;;;;;;;;;;;11.29;93.54;101619.44;5007199;28;19914;-89
2023/05/03 02:23:12;;;;;;;;;;;;;;;11.25;94.08;101620.72;5028086;28;20048;-91
2023/05/03 02:25:39;;;;;;;;;;;;;;;11.20;94.62;101627.38;5029154;28;19929;-90
2023/05/03 02:28:06;;;;;;;;;;;;;;;11.22;94.66;101624.53;4990802;28;19917;-90
2023/05/03 02:30:43;;;;;;;;;;;;;;;11.14;95.68;101633.31;4999533;28;19926;-92
2023/05/03 02:33:11;;;;;;;;;;;;;;;11.05;96.51;101630.59;5013262;28;19940;-89
2023/05/03 02:35:43;;;;;;;;;;;;;;;11.01;96.82;101638.13;4996895;28;19922;-91
2023/05/03 02:38:08;;;;;;;;;;;;;;;11.07;96.11;101637.53;4976859;28;19921;-91
2023/05/03 02:40:40;;;;;;;;;;;;;;;11.11;95.33;101638.13;4981160;28;20451;-90
2023/05/03 02:43:09;;;;;;;;;;;;;;;11.12;95.28;101638.00;5004480;28;19972;-90
2023/05/03 02:45:35;;;;;;;;;;;;;;;11.13;94.70;101636.16;5010879;28;19975;-91
2023/05/03 02:48:01;;;;;;;;;;;;;;;11.09;94.95;101634.72;4990003;28;20314;-89
2023/05/03 02:50:26;;;;;;;;;;;;;;;11.09;94.78;101632.88;4988640;28;20029;-91
2023/05/03 02:52:54;;;;;;;;;;;;;;;11.14;94.35;101633.31;4986377;28;19985;-91
2023/05/03 02:55:20;;;;;;;;;;;;;;;11.18;94.49;101632.03;5022166;28;19937;-91
2023/05/03 03:00:49;;;;;;;;;;;;;;;11.22;93.77;101639.84;5020963;28;20000;-91
2023/05/03 03:03:15;;;;;;;;;;;;;;;11.21;93.88;101647.03;4998420;28;19905;-86
2023/05/03 03:05:40;;;;;;;;;;;;;;;11.17;93.80;101637.56;4997213;28;19921;-87
2023/05/03 03:08:11;;;;;;;;;;;;;;;11.27;93.09;101642.97;5013263;28;20314;-89
2023/05/03 03:10:36;;;;;;;;;;;;;;;11.28;92.95;101639.25;4987021;28;19993;-90
2023/05/03 03:13:02;;;;;;;;;;;;;;;11.33;92.91;101635.16;4985596;28;19969;-91
2023/05/03 03:15:37;;;;;;;;;;;;;;;11.33;92.87;101645.06;5012627;28;19924;-87
2023/05/03 03:18:03;;;;;;;;;;;;;;;11.37;92.71;101638.41;5005199;28;19981;-90
2023/05/03 03:20:28;;;;;;;;;;;;;;;11.40;92.99;101644.38;4986249;28;19956;-89
2023/05/03 03:22:55;;;;;;;;;;;;;;;11.40;93.10;101635.44;4988330;28;19918;-88
2023/05/03 03:25:21;;;;;;;;;;;;;;;11.49;92.93;101639.97;5004649;28;19952;-87
2023/05/03 03:27:46;;;;;;;;;;;;;;;11.61;92.10;101638.84;5006134;28;19922;-89
2023/05/03 03:30:13;;;;;;;;;;;;;;;11.59;92.99;101638.13;5011739;28;19921;-88
2023/05/03 03:32:39;;;;;;;;;;;;;;;11.59;93.12;101637.28;5014069;28;20329;-88
2023/05/03 03:35:07;;;;;;;;;;;;;;;11.69;92.44;101639.94;5012704;28;19965;-88
2023/05/03 03:37:34;;;;;;;;;;;;;;;11.73;92.33;101646.72;4993797;28;19929;-89
2023/05/03 03:40:02;;;;;;;;;;;;;;;11.86;92.00;101647.28;5005260;28;19930;-88
2023/05/03 03:42:35;;;;;;;;;;;;;;;11.89;91.59;101654.25;5013579;28;20469;-90
2023/05/03 03:45:03;;;;;;;;;;;;;;;11.87;91.48;101657.13;5004509;28;19983;-91
2023/05/03 03:47:30;;;;;;;;;;;;;;;11.98;91.04;101667.69;4996116;28;19922;-89
2023/05/03 03:49:55;;;;;;;;;;;;;;;12.12;90.61;101670.94;5017343;28;19943;-89
2023/05/03 03:52:22;;;;;;;;;;;;;;;12.15;89.51;101662.53;5018140;28;20006;-92
2023/05/03 03:54:50;;;;;;;;;;;;;;;12.22;89.94;101660.97;4993026;28;19926;-91
2023/05/03 03:57:15;;;;;;;;;;;;;;;12.46;88.64;101668.56;4997488;28;19961;-88
2023/05/03 03:59:41;;;;;;;;;;;;;;;12.57;87.61;101660.28;5010597;28;19930;-91
2023/05/03 04:02:07;;;;;;;;;;;;;;;12.54;87.64;101651.63;5010474;28;19928;-91
2023/05/03 04:04:33;;;;;;;;;;;;;;;12.66;86.90;101658.50;4986827;28;19930;-89
2023/05/03 04:07:00;;;;;;;;;;;;;;;12.74;86.41;101646.97;4984968;28;20362;-91
2023/05/03 04:09:31;;;;;;;;;;;;;;;12.81;86.23;101651.59;4985382;28;19922;-90
2023/05/03 04:11:57;;;;;;;;;;;;;;;12.87;85.76;101650.13;5009747;28;19961;-93
2023/05/03 04:14:25;;;;;;;;;;;;;;;12.88;85.79;101654.56;4976961;28;19922;-91
2023/05/03 04:16:53;;;;;;;;;;;;;;;13.09;84.47;101659.66;4977137;28;19956;-93
2023/05/03 04:19:38;;;;;;;;;;;;;;;13.22;84.01;101662.81;4988059;28;19918;-91
2023/05/03 04:22:05;;;;;;;;;;;;;;;13.34;82.33;101662.63;4979548;28;19922;-91
2023/05/03 04:24:38;;;;;;;;;;;;;;;13.32;82.28;101665.47;4976312;28;19932;-92
2023/05/03 04:27:04;;;;;;;;;;;;;;;13.41;82.23;101669.09;4974991;28;19922;-92
2023/05/03 04:29:32;;;;;;;;;;;;;;;13.47;81.95;101660.38;4976442;28;20023;-93
2023/05/03 04:31:57;;;;;;;;;;;;;;;13.62;80.21;101666.91;4969873;28;19921;-92
2023/05/03 04:34:25;;;;;;;;;;;;;;;13.64;80.06;101670.31;4978582;28;19929;-92
2023/05/03 04:36:54;;;;;;;;;;;;;;;13.79;79.95;101667.03;4981276;28;19933;-93
2023/05/03 04:39:21;;;;;;;;;;;;;;;13.85;79.37;101667.28;4976795;28;20412;-91
2023/05/03 04:41:55;;;;;;;;;;;;;;;13.97;77.83;101670.56;4978867;28;20016;-95
2023/05/03 04:44:25;;;;;;;;;;;;;;;14.21;77.30;101669.03;4982235;28;19926;-92
2023/05/03 04:46:55;;;;;;;;;;;;;;;14.39;75.57;101664.38;5015954;28;19909;-94
2023/05/03 04:49:28;;;;;;;;;;;;;;;14.54;75.59;101662.81;4989137;28;19926;-92
2023/05/03 04:51:54;;;;;;;;;;;;;;;14.76;74.70;101655.94;4985588;28;19925;-89
2023/05/03 04:54:19;;;;;;;;;;;;;;;14.99;73.88;101661.59;5005641;28;20390;-90
2023/05/03 04:56:46;;;;;;;;;;;;;;;14.89;73.05;101665.44;4972217;28;19973;-88
2023/05/03 04:59:15;;;;;;;;;;;;;;;15.01;72.29;101669.56;5007651;28;20035;-92
2023/05/03 05:01:40;;;;;;;;;;;;;;;15.01;71.72;101674.13;4982326;28;19924;-91
2023/05/03 05:04:07;;;;;;;;;;;;;;;15.23;72.35;101680.78;4990455;28;19922;-91
2023/05/03 05:06:33;;;;;;;;;;;;;;;15.55;70.79;101683.53;4991242;28;19936;-90
2023/05/03 05:08:59;;;;;;;;;;;;;;;15.81;69.61;101682.53;4981586;28;19941;-90
2023/05/03 05:11:24;;;;;;;;;;;;;;;15.71;67.15;101693.56;4980100;28;20036;-90
2023/05/03 05:13:50;;;;;;;;;;;;;;;15.93;67.38;101696.59;4977073;28;19922;-89
2023/05/03 05:16:16;;;;;;;;;;;;;;;16.02;66.28;101701.00;4997168;28;19979;-89
2023/05/03 05:18:42;;;;;;;;;;;;;;;15.83;67.50;101700.34;5002138;28;19921;-88
2023/05/03 05:21:07;;;;;;;;;;;;;;;15.82;67.84;101704.03;4975396;28;19944;-86
2023/05/03 05:23:33;;;;;;;;;;;;;;;15.86;66.09;101699.13;4996741;28;19937;-88
2023/05/03 05:25:59;;;;;;;;;;;;;;;15.96;66.48;101698.97;4978215;28;19961;-90
2023/05/03 05:28:25;;;;;;;;;;;;;;;16.10;65.39;101694.69;4998926;28;19932;-87
2023/05/03 05:30:52;;;;;;;;;;;;;;;16.30;64.90;101697.91;4979145;28;19929;-92
2023/05/03 05:33:18;;;;;;;;;;;;;;;15.90;63.48;101697.78;4994440;28;20020;-89
2023/05/03 05:35:45;;;;;;;;;;;;;;;16.04;63.30;101705.22;4986461;28;20225;-90
2023/05/03 05:38:11;;;;;;;;;;;;;;;16.33;62.69;101702.97;4967056;28;20406;-91
2023/05/03 05:40:36;;;;;;;;;;;;;;;16.50;61.90;101693.75;4976021;28;19926;-87
2023/05/03 05:43:04;;;;;;;;;;;;;;;16.87;61.60;101703.13;4992883;28;19976;-88
2023/05/03 05:45:35;;;;;;;;;;;;;;;16.83;61.07;101710.81;4996626;28;19922;-91
2023/05/03 05:48:00;;;;;;;;;;;;;;;16.86;60.77;101704.19;4996595;28;19968;-91
2023/05/03 05:50:27;;;;;;;;;;;;;;;16.81;60.72;101706.56;4976107;28;19950;-91
2023/05/03 05:52:52;;;;;;;;;;;;;;;17.11;59.14;101717.63;4992227;28;19914;-89
2023/05/03 05:55:18;;;;;;;;;;;;;;;16.98;59.58;101724.47;4995563;28;19948;-93
2023/05/03 05:57:43;;;;;;;;;;;;;;;16.67;60.37;101717.13;5015753;28;20391;-86
2023/05/03 06:00:13;;;;;;;;;;;;;;;16.59;60.53;101709.00;4995167;28;19937;-92
2023/05/03 06:02:39;;;;;;;;;;;;;;;16.74;60.69;101717.28;4979460;28;19922;-91
2023/05/03 06:05:08;;;;;;;;;;;;;;;16.65;60.74;101715.59;4975533;28;19932;-90
2023/05/03 06:07:33;;;;;;;;;;;;;;;16.88;59.97;101723.88;4983244;28;20336;-91
2023/05/03 06:10:30;;;;;;;;;;;;;;;16.78;60.27;101723.19;4975643;28;20469;-92
2023/05/03 06:13:00;;;;;;;;;;;;;;;16.71;57.82;101722.19;4996964;28;19973;-92
2023/05/03 06:15:25;;;;;;;;;;;;;;;16.74;59.21;101732.69;4965421;28;19926;-90
2023/05/03 06:17:51;;;;;;;;;;;;;;;16.96;59.15;101726.53;4994700;28;19937;-91
2023/05/03 06:20:17;;;;;;;;;;;;;;;16.91;58.59;101726.22;5002681;28;19926;-93
2023/05/03 06:22:55;;;;;;;;;;;;;;;17.12;56.63;101738.34;4966088;28;19932;-93
2023/05/03 06:25:21;;;;;;;;;;;;;;;17.23;56.11;101743.34;4999782;28;19925;-96
2023/05/03 06:27:47;;;;;;;;;;;;;;;17.45;54.16;101737.13;4988731;28;20056;-90
2023/05/03 06:30:27;;;;;;;;;;;;;;;18.04;53.50;101733.78;4984242;28;19921;-92
2023/05/03 06:33:00;;;;;;;;;;;;;;;18.42;51.47;101738.34;5004614;28;19922;-94
2023/05/03 06:35:28;;;;;;;;;;;;;;;19.02;50.04;101729.16;5005647;28;19918;-92
2023/05/03 06:37:56;;;;;;;;;;;;;;;19.33;48.70;101726.16;5000710;28;19921;-94
2023/05/03 06:40:34;;;;;;;;;;;;;;;18.53;48.80;101714.22;4987178;28;19956;-93
2023/05/03 06:43:23;;;;;;;;;;;;;;;18.50;47.57;101719.22;5000116;28;20463;-95
2023/05/03 06:45:57;;;;;;;;;;;;;;;18.00;47.73;101720.72;4983938;28;19978;-93
2023/05/03 06:48:24;;;;;;;;;;;;;;;18.01;49.00;101719.72;4986922;28;19960;-93
2023/05/03 06:51:09;;;;;;;;;;;;;;;17.98;47.74;101717.34;4978193;28;19918;-93
2023/05/03 06:54:08;;;;;;;;;;;;;;;18.22;45.31;101711.69;5004280;28;19917;-94
2023/05/03 06:57:04;;;;;;;;;;;;;;;18.33;46.98;101713.94;5018024;28;19928;-95
2023/05/03 06:59:54;;;;;;;;;;;;;;;18.07;47.00;101708.09;5031935;28;19925;-94
2023/05/03 07:02:48;;;;;;;;;;;;;;;18.41;46.84;101704.84;4991879;28;20453;-94
2023/05/03 07:05:14;;;;;;;;;;;;;;;18.24;47.17;101714.19;5000157;28;20986;-90
2023/05/03 07:07:52;;;;;;;;;;;;;;;18.21;46.30;101720.88;4987322;28;20021;-92
2023/05/03 07:10:33;;;;;;;;;;;;;;;17.99;46.84;101738.09;4991845;28;19930;-92
2023/05/03 07:13:00;;;;;;;;;;;;;;;17.76;47.15;101736.22;4992221;28;21760;-91
2023/05/03 07:15:38;;;;;;;;;;;;;;;18.06;47.37;101739.91;4982466;28;19921;-94
2023/05/03 07:18:10;;;;;;;;;;;;;;;18.39;47.49;101722.41;5005886;28;19917;-91
2023/05/03 07:20:45;;;;;;;;;;;;;;;18.80;45.74;101719.22;4980277;28;19933;-87
2023/05/03 07:23:12;;;;;;;;;;;;;;;19.42;44.66;101732.34;4991899;28;19921;-87
2023/05/03 07:25:41;;;;;;;;;;;;;;;18.83;44.88;101729.75;4988330;28;19929;-93
2023/05/03 07:28:07;;;;;;;;;;;;;;;18.96;45.04;101725.31;4998226;28;19922;-90
2023/05/03 07:30:33;;;;;;;;;;;;;;;19.02;44.70;101722.88;5010659;28;19929;-91
2023/05/03 07:33:20;;;;;;;;;;;;;;;18.77;44.56;101721.28;4977829;28;19918;-93
2023/05/03 07:38:26;;;;;;;;;;;;;;;19.63;41.89;101736.97;5032124;28;19944;-87
2023/05/03 07:40:51;;;;;;;;;;;;;;;19.80;42.11;101741.13;5032899;28;19929;-91
2023/05/03 07:43:22;;;;;;;;;;;;;;;20.54;41.91;101760.84;5025106;28;19921;-92
2023/05/03 07:46:13;;;;;;;;;;;;;;;21.19;40.43;101765.00;5006871;28;19921;-94
2023/05/03 07:59:02;;;;;;;;;;;;;;;21.65;36.39;101783.44;5272715;22;19968;-91
2023/05/03 08:01:28;;;;;;;;;;;;;;;21.34;37.01;101788.59;4995838;28;19925;-91
2023/05/03 08:03:53;;;;;;;;;;;;;;;21.38;36.94;101798.09;4986215;28;19992;-92
2023/05/03 08:06:20;;;;;;;;;;;;;;;21.66;35.77;101803.47;4979199;28;19964;-88
2023/05/03 08:08:46;;;;;;;;;;;;;;;21.62;37.86;101816.69;4992002;28;19933;-88
2023/05/03 08:11:13;;;;;;;;;;;;;;;21.87;37.74;101821.63;5010816;28;19921;-87
2023/05/03 08:13:40;;;;;;;;;;;;;;;21.70;37.54;101815.66;5020684;28;19941;-87
2023/05/03 08:16:08;;;;;;;;;;;;;;;22.68;37.18;101818.69;4997570;28;19928;-89
2023/05/03 08:18:35;;;;;;;;;;;;;;;21.99;38.88;101819.94;4978268;28;19987;-88
2023/05/03 08:21:01;;;;;;;;;;;;;;;22.24;39.08;101827.56;5011140;28;19960;-88
2023/05/03 08:23:30;;;;;;;;;;;;;;;22.83;38.09;101804.75;5013284;28;19937;-91
2023/05/03 08:25:57;;;;;;;;;;;;;;;22.21;37.81;101817.03;4993345;28;19960;-88
2023/05/03 08:28:24;;;;;;;;;;;;;;;20.84;40.43;101811.50;4993596;28;19921;-90
2023/05/03 08:30:52;;;;;;;;;;;;;;;20.44;42.22;101827.59;4997834;28;20003;-92
2023/05/03 08:33:19;;;;;;;;;;;;;;;19.71;43.36;101820.59;5018999;28;19918;-90
2023/05/03 08:35:45;;;;;;;;;;;;;;;20.31;42.86;101822.00;4995617;28;19926;-92
2023/05/03 08:38:12;;;;;;;;;;;;;;;20.54;42.89;101820.94;4994200;28;19928;-86
2023/05/03 08:40:40;;;;;;;;;;;;;;;20.19;43.29;101821.69;4991392;28;20144;-89
2023/05/03 08:43:08;;;;;;;;;;;;;;;19.67;44.60;101833.75;5011836;28;20278;-89
2023/05/03 08:45:34;;;;;;;;;;;;;;;19.52;45.31;101833.75;4990666;28;19926;-89
2023/05/03 08:48:02;;;;;;;;;;;;;;;19.53;45.76;101830.03;4989065;28;20039;-89
2023/05/03 08:50:28;;;;;;;;;;;;;;;20.60;43.83;101833.81;4982658;28;19920;-89
2023/05/03 08:52:53;;;;;;;;;;;;;;;22.18;40.29;101829.22;5012981;28;20334;-90
2023/05/03 08:55:20;;;;;;;;;;;;;;;23.39;38.66;101826.09;4975660;28;19934;-87
2023/05/03 08:57:45;;;;;;;;;;;;;;;24.08;35.66;101823.59;4997225;28;19976;-88
2023/05/03 09:00:11;;;;;;;;;;;;;;;25.31;33.44;101822.03;4998823;28;19947;-89
2023/05/03 09:02:40;;;;;;;;;;;;;;;26.25;31.11;101814.09;5008802;28;19926;-87
2023/05/03 09:05:15;;;;;;;;;;;;;;;26.35;30.14;101815.44;5010710;28;19922;-89
2023/05/03 09:07:44;;;;;;;;;;;;;;;25.28;32.02;101817.81;4991846;28;19987;-89
2023/05/03 09:10:23;;;;;;;;;;;;;;;27.06;28.00;101814.31;5004512;28;19922;-89
2023/05/03 09:12:51;;;;;;;;;;;;;;;27.86;27.84;101804.34;4985527;28;19922;-91
2023/05/03 09:15:21;;;;;;;;;;;;;;;28.82;25.28;101803.38;4966411;28;20463;-90
2023/05/03 09:18:09;;;;;;;;;;;;;;;30.68;23.78;101782.81;4985705;28;19944;-92
2023/05/03 09:20:38;;;;;;;;;;;;;;;30.66;22.51;101769.19;4993807;28;19981;-92
2023/05/03 09:23:04;;;;;;;;;;;;;;;31.92;21.31;101752.38;4991365;28;19928;-93
2023/05/03 09:25:48;;;;;;;;;;;;;;;33.19;20.61;101764.34;5012008;28;19917;-92
2023/05/03 09:28:14;;;;;;;;;;;;;;;31.31;22.31;101761.44;5016977;28;19921;-86
2023/05/03 09:30:40;;;;;;;;;;;;;;;30.58;22.54;101771.66;5009788;28;20287;-89
2023/05/03 09:33:06;;;;;;;;;;;;;;;29.06;23.00;101779.06;4979015;28;19931;-87
2023/05/03 09:35:33;;;;;;;;;;;;;;;27.82;25.50;101775.50;4999316;28;20011;-89
2023/05/03 09:38:00;;;;;;;;;;;;;;;25.59;28.07;101784.78;4988735;28;19922;-89
2023/05/03 09:40:26;;;;;;;;;;;;;;;24.74;29.26;101777.38;4994949;28;20020;-89
2023/05/03 09:43:08;;;;;;;;;;;;;;;23.98;29.58;101787.56;5006004;28;19980;-91
2023/05/03 09:45:34;;;;;;;;;;;;;;;26.76;27.12;101777.78;5008271;28;19945;-89
2023/05/03 09:48:00;;;;;;;;;;;;;;;26.65;26.91;101780.31;4989231;28;19957;-91
2023/05/03 09:50:27;;;;;;;;;;;;;;;27.96;25.19;101776.88;4990774;28;19965;-90
2023/05/03 09:52:53;;;;;;;;;;;;;;;29.85;23.15;101764.75;4992152;28;20031;-92
2023/05/03 09:55:24;;;;;;;;;;;;;;;31.32;21.30;101760.31;4986943;28;19934;-90
2023/05/03 09:57:50;;;;;;;;;;;;;;;30.85;20.44;101764.06;5009601;28;20005;-89
2023/05/03 10:00:19;;;;;;;;;;;;;;;29.85;20.38;101753.66;4988822;28;19957;-89
2023/05/03 10:02:46;;;;;;;;;;;;;;;32.02;18.84;101756.28;4996285;28;19925;-89
2023/05/03 10:05:13;;;;;;;;;;;;;;;30.63;18.06;101742.00;4993557;28;20047;-90
2023/05/03 10:07:39;;;;;;;;;;;;;;;30.57;18.13;101733.91;5013220;28;19921;-90
2023/05/03 10:10:07;;;;;;;;;;;;;;;30.91;17.57;101738.00;4991829;28;19932;-93
2023/05/03 10:12:35;;;;;;;;;;;;;;;31.36;17.00;101732.84;4994504;28;19932;-90
2023/05/03 10:15:01;;;;;;;;;;;;;;;29.75;18.70;101739.69;5009947;28;19930;-89
2023/05/03 10:17:29;;;;;;;;;;;;;;;31.50;17.75;101722.88;5014188;28;20046;-90
2023/05/03 10:20:09;;;;;;;;;;;;;;;31.21;18.82;101728.09;4996726;28;20346;-90
2023/05/03 10:22:55;;;;;;;;;;;;;;;29.68;19.57;101725.22;5015152;28;20002;-90
2023/05/03 10:25:21;;;;;;;;;;;;;;;28.06;21.57;101731.16;4987733;28;19922;-88
2023/05/03 10:27:46;;;;;;;;;;;;;;;28.97;20.26;101731.63;4992213;28;19921;-90
2023/05/03 10:30:33;;;;;;;;;;;;;;;29.03;20.99;101736.13;5015991;28;19917;-90
2023/05/03 10:33:20;;;;;;;;;;;;;;;28.98;21.35;101727.75;5014151;28;19922;-89
2023/05/03 10:35:52;;;;;;;;;;;;;;;30.20;20.64;101732.81;4985076;28;19925;-91
2023/05/03 10:38:31;;;;;;;;;;;;;;;32.08;18.76;101721.81;4989062;28;19965;-90
2023/05/03 10:40:58;;;;;;;;;;;;;;;31.48;18.11;101715.94;4989760;28;20273;-90
2023/05/03 10:43:30;;;;;;;;;;;;;;;31.54;17.82;101724.00;4991668;28;19922;-91
2023/05/03 10:45:59;;;;;;;;;;;;;;;31.75;17.45;101716.50;5012979;28;20008;-91
2023/05/03 10:48:27;;;;;;;;;;;;;;;29.57;18.98;101710.41;5000168;28;19929;-89
2023/05/03 10:50:55;;;;;;;;;;;;;;;28.85;19.68;101706.03;5022978;28;19930;-91
2023/05/03 10:53:34;;;;;;;;;;;;;;;27.01;20.81;101714.03;4996897;28;19929;-91
2023/05/03 10:56:10;;;;;;;;;;;;;;;24.78;24.73;101713.44;4995872;28;19983;-89
2023/05/03 10:58:42;;;;;;;;;;;;;;;24.76;25.51;101712.00;4997587;28;20015;-90
2023/05/03 11:01:14;;;;;;;;;;;;;;;23.00;26.80;101711.91;5012567;28;20772;-89
2023/05/03 11:03:44;;;;;;;;;;;;;;;22.76;28.37;101722.53;4989965;28;19987;-89
2023/05/03 11:06:28;;;;;;;;;;;;;;;22.29;30.64;101720.97;4995113;28;19953;-89
2023/05/03 11:08:54;;;;;;;;;;;;;;;22.11;30.74;101716.94;5005955;28;20001;-90
2023/05/03 11:11:22;;;;;;;;;;;;;;;21.34;31.26;101721.06;5012199;28;19980;-90
2023/05/03 11:13:49;;;;;;;;;;;;;;;21.15;31.56;101714.50;4993605;28;19933;-89
2023/05/03 11:16:17;;;;;;;;;;;;;;;21.33;30.71;101710.31;4990822;28;19935;-91
2023/05/03 11:18:49;;;;;;;;;;;;;;;21.06;30.42;101702.88;5015099;28;19944;-92
2023/05/03 11:21:17;;;;;;;;;;;;;;;20.49;30.29;101703.25;5003863;28;19906;-91
2023/05/03 11:23:43;;;;;;;;;;;;;;;20.38;30.64;101705.47;5030212;28;19917;-90
2023/05/03 11:26:11;;;;;;;;;;;;;;;20.27;32.39;101706.03;5025141;28;19909;-90
2023/05/03 11:28:37;;;;;;;;;;;;;;;20.03;32.46;101697.25;5007792;28;19931;-90
2023/05/03 11:31:08;;;;;;;;;;;;;;;19.88;33.08;101693.78;5001113;28;20020;-90
2023/05/03 11:33:39;;;;;;;;;;;;;;;19.38;35.10;101690.13;4998214;28;19925;-91
2023/05/03 11:36:07;;;;;;;;;;;;;;;19.28;34.29;101698.63;5006850;28;19921;-90
2023/05/03 11:38:36;;;;;;;;;;;;;;;19.68;34.54;101701.78;5011097;28;19983;-89
2023/05/03 11:41:12;;;;;;;;;;;;;;;19.61;34.77;101698.94;4977527;28;19936;-92
2023/05/03 11:44:02;;;;;;;;;;;;;;;19.13;35.77;101695.97;5007697;28;19925;-88
2023/05/03 11:46:31;;;;;;;;;;;;;;;18.66;38.26;101693.66;5009458;28;19937;-90
2023/05/03 11:49:01;;;;;;;;;;;;;;;18.64;39.47;101673.94;4998802;28;19922;-91
2023/05/03 11:51:45;;;;;;;;;;;;;;;18.98;38.46;101684.25;5090235;22;19932;-93
2023/05/03 11:54:11;;;;;;;;;;;;;;;19.33;38.87;101685.25;5031680;23;19933;-93
2023/05/03 12:03:07;;;;;;;;;;;;;;;19.57;37.27;101691.34;5024296;28;19933;-95
2023/05/03 12:05:58;;;;;;;;;;;;;;;19.81;38.29;101691.00;5009991;28;19957;-95
2023/05/03 12:08:54;;;;;;;;;;;;;;;20.64;37.80;101691.13;5015664;28;19932;-95
2023/05/03 12:15:08;;;;;;;;;;;;;;;21.11;38.29;101690.50;5045424;23;19913;-95
2023/05/03 12:17:37;;;;;;;;;;;;;;;20.24;38.28;101687.31;5002506;28;19999;-93
2023/05/03 12:20:21;;;;;;;;;;;;;;;20.13;39.13;101682.41;5013013;23;19964;-94
2023/05/03 12:22:55;;;;;;;;;;;;;;;20.76;38.33;101683.22;4988708;28;20004;-92
2023/05/03 12:25:32;;;;;;;;;;;;;;;20.02;39.94;101695.56;4991873;28;20369;-93
2023/05/03 12:28:08;;;;;;;;;;;;;;;20.07;40.39;101691.41;5008473;28;19969;-92
2023/05/03 12:30:57;;;;;;;;;;;;;;;20.18;40.47;101690.84;4989060;28;19930;-94
2023/05/03 12:33:36;;;;;;;;;;;;;;;20.29;39.80;101686.72;4956132;28;20005;-93
2023/05/03 13:08:23;;;;;;;;;;;;;;;18.31;43.45;101667.00;5169134;22;19932;-92
2023/05/03 13:20:41;;;;;;;;;;;;;;;18.60;43.76;101624.44;5007921;28;19962;-96
2023/05/03 13:23:44;;;;;;;;;;;;;;;18.61;44.01;101622.56;4996838;28;19933;-95
2023/05/03 13:29:35;;;;;;;;;;;;;;;18.24;45.95;101599.88;4967009;28;19953;-96
2023/05/03 13:41:17;;;;;;;;;;;;;;;17.39;47.54;101599.19;5155225;22;20001;-92
2023/05/03 13:44:16;;;;;;;;;;;;;;;17.39;47.66;101607.34;5199593;22;19940;-96
2023/05/03 14:04:59;;;;;;;;;;;;;;;;;;;;;
2023/05/03 14:22:07;;;;;;;;;;;;;;;17.37;49.10;101574.09;5347315;22;19967;-95
2023/05/03 14:28:07;;;;;;;;;;;;;;;17.38;50.16;101581.22;5154839;23;20865;-95
2023/05/03 14:31:12;;;;;;;;;;;;;;;17.50;49.96;101581.63;5004564;28;19909;-94
2023/05/03 14:34:12;;;;;;;;;;;;;;;17.33;51.01;101583.63;5004607;28;19919;-95
2023/05/03 14:37:02;;;;;;;;;;;;;;;16.95;52.25;101594.47;5009248;28;19956;-94
2023/05/03 14:40:17;;;;;;;;;;;;;;;16.41;54.00;101591.66;4954350;28;19922;-96
2023/05/03 14:42:44;;;;;;;;;;;;;;;16.42;54.65;101598.78;4958125;28;20042;-94
2023/05/03 14:45:28;;;;;;;;;;;;;;;16.53;54.83;101606.56;4968502;28;19945;-95
2023/05/03 14:54:11;;;;;;;;;;;;;;;16.07;56.70;101622.66;5123876;22;19930;-95
2023/05/03 15:21:46;;;;;;;;;;;;;;;15.19;61.54;101597.16;5043005;28;20001;-95
2023/05/03 15:24:13;;;;;;;;;;;;;;;15.18;61.53;101613.56;5019072;28;19980;-93